Terminal Aerodrome Forecast
Issued by NWS

Home | Current Version | Previous Version | Graphics & Text | Print | Product List | Glossary On
Versions: 1 2 3 4 5 6 7 8 9 10 11 12 13 14 15
000
FTUS43 KMPX 190702 AAA
TAFAXN
TAF AMD
KAXN 190702Z 1907/2006 16006KT 1/4SM FZFG VV002
     FM191300 18008KT 3SM BR FEW004
     FM191800 17010KT 4SM BR SCT010 BKN250
     FM192300 17009KT 5SM BR OVC010=

USA.gov is the U.S. government's official web portal to all federal, state and local government web resources and services.